sensor_id;sensor_type;location;lat;lon;timestamp;P1;durP1;ratioP1;P2;durP2;ratioP2
11907;SDS011;6014;47.690;9.130;2023-12-20T00:01:57;5.17;;;1.90;;
11907;SDS011;6014;47.690;9.130;2023-12-20T00:04:26;4.30;;;1.88;;
11907;SDS011;6014;47.690;9.130;2023-12-20T00:06:58;3.33;;;1.83;;
11907;SDS011;6014;47.690;9.130;2023-12-20T00:09:32;3.05;;;1.65;;
11907;SDS011;6014;47.690;9.130;2023-12-20T00:12:01;3.43;;;1.83;;
11907;SDS011;6014;47.690;9.130;2023-12-20T00:14:30;2.10;;;1.47;;
11907;SDS011;6014;47.690;9.130;2023-12-20T00:16:58;4.80;;;2.33;;
11907;SDS011;6014;47.690;9.130;2023-12-20T00:19:33;5.27;;;2.27;;
11907;SDS011;6014;47.690;9.130;2023-12-20T00:22:13;3.63;;;2.07;;
11907;SDS011;6014;47.690;9.130;2023-12-20T00:24:43;4.93;;;2.33;;
11907;SDS011;6014;47.690;9.130;2023-12-20T00:27:12;4.68;;;2.40;;
11907;SDS011;6014;47.690;9.130;2023-12-20T00:29:40;3.97;;;1.88;;
11907;SDS011;6014;47.690;9.130;2023-12-20T00:32:14;4.27;;;2.27;;
11907;SDS011;6014;47.690;9.130;2023-12-20T00:34:43;4.70;;;2.37;;
11907;SDS011;6014;47.690;9.130;2023-12-20T00:37:11;4.53;;;2.30;;
11907;SDS011;6014;47.690;9.130;2023-12-20T00:39:40;5.37;;;2.40;;
11907;SDS011;6014;47.690;9.130;2023-12-20T00:42:10;4.10;;;1.80;;
11907;SDS011;6014;47.690;9.130;2023-12-20T00:44:38;4.33;;;2.30;;
11907;SDS011;6014;47.690;9.130;2023-12-20T00:47:07;6.23;;;2.50;;
11907;SDS011;6014;47.690;9.130;2023-12-20T00:49:35;4.90;;;2.53;;
11907;SDS011;6014;47.690;9.130;2023-12-20T00:52:05;3.97;;;2.10;;
11907;SDS011;6014;47.690;9.130;2023-12-20T00:54:33;4.20;;;2.07;;
11907;SDS011;6014;47.690;9.130;2023-12-20T00:57:02;3.57;;;2.00;;
11907;SDS011;6014;47.690;9.130;2023-12-20T00:59:32;3.67;;;2.10;;
11907;SDS011;6014;47.690;9.130;2023-12-20T01:02:00;4.47;;;1.95;;
11907;SDS011;6014;47.690;9.130;2023-12-20T01:04:31;4.13;;;1.93;;
11907;SDS011;6014;47.690;9.130;2023-12-20T01:07:00;6.77;;;2.30;;
11907;SDS011;6014;47.690;9.130;2023-12-20T01:09:28;3.70;;;2.00;;
11907;SDS011;6014;47.690;9.130;2023-12-20T01:11:56;4.73;;;2.20;;
11907;SDS011;6014;47.690;9.130;2023-12-20T01:14:25;4.78;;;2.15;;
11907;SDS011;6014;47.690;9.130;2023-12-20T01:16:55;5.53;;;2.73;;
11907;SDS011;6014;47.690;9.130;2023-12-20T01:19:24;4.72;;;2.47;;
11907;SDS011;6014;47.690;9.130;2023-12-20T01:21:53;5.80;;;2.90;;
11907;SDS011;6014;47.690;9.130;2023-12-20T01:24:22;3.78;;;1.90;;
11907;SDS011;6014;47.690;9.130;2023-12-20T01:26:50;4.43;;;1.92;;
11907;SDS011;6014;47.690;9.130;2023-12-20T01:29:19;5.65;;;2.75;;
11907;SDS011;6014;47.690;9.130;2023-12-20T01:31:47;5.40;;;2.78;;
11907;SDS011;6014;47.690;9.130;2023-12-20T01:34:17;4.80;;;2.33;;
11907;SDS011;6014;47.690;9.130;2023-12-20T01:36:45;7.43;;;2.47;;
11907;SDS011;6014;47.690;9.130;2023-12-20T01:39:14;4.57;;;2.40;;
11907;SDS011;6014;47.690;9.130;2023-12-20T01:41:53;5.70;;;2.80;;
11907;SDS011;6014;47.690;9.130;2023-12-20T01:44:22;4.10;;;2.22;;
11907;SDS011;6014;47.690;9.130;2023-12-20T01:46:50;4.13;;;2.05;;
11907;SDS011;6014;47.690;9.130;2023-12-20T01:49:21;6.72;;;2.40;;
11907;SDS011;6014;47.690;9.130;2023-12-20T01:51:49;5.50;;;2.20;;
11907;SDS011;6014;47.690;9.130;2023-12-20T01:54:18;3.03;;;1.83;;
11907;SDS011;6014;47.690;9.130;2023-12-20T01:56:48;5.50;;;2.60;;
11907;SDS011;6014;47.690;9.130;2023-12-20T01:59:16;4.93;;;2.37;;
11907;SDS011;6014;47.690;9.130;2023-12-20T02:01:46;5.20;;;2.43;;
11907;SDS011;6014;47.690;9.130;2023-12-20T02:04:15;6.53;;;3.00;;
11907;SDS011;6014;47.690;9.130;2023-12-20T02:06:45;4.57;;;2.28;;
11907;SDS011;6014;47.690;9.130;2023-12-20T02:09:14;4.93;;;2.65;;
11907;SDS011;6014;47.690;9.130;2023-12-20T02:11:43;5.40;;;2.20;;
11907;SDS011;6014;47.690;9.130;2023-12-20T02:14:12;4.75;;;2.55;;
11907;SDS011;6014;47.690;9.130;2023-12-20T02:16:40;4.55;;;2.33;;
11907;SDS011;6014;47.690;9.130;2023-12-20T02:19:11;6.30;;;2.55;;
11907;SDS011;6014;47.690;9.130;2023-12-20T02:21:43;5.53;;;2.63;;
11907;SDS011;6014;47.690;9.130;2023-12-20T02:24:11;4.80;;;2.72;;
11907;SDS011;6014;47.690;9.130;2023-12-20T02:26:40;5.43;;;2.60;;
11907;SDS011;6014;47.690;9.130;2023-12-20T02:29:20;4.82;;;2.40;;
11907;SDS011;6014;47.690;9.130;2023-12-20T02:31:49;5.20;;;2.50;;
11907;SDS011;6014;47.690;9.130;2023-12-20T02:34:18;4.70;;;2.60;;
11907;SDS011;6014;47.690;9.130;2023-12-20T02:36:47;5.68;;;2.80;;
11907;SDS011;6014;47.690;9.130;2023-12-20T02:39:16;5.55;;;2.75;;
11907;SDS011;6014;47.690;9.130;2023-12-20T02:44:24;6.57;;;3.03;;
11907;SDS011;6014;47.690;9.130;2023-12-20T02:46:52;6.18;;;3.00;;
11907;SDS011;6014;47.690;9.130;2023-12-20T02:49:21;5.72;;;2.60;;
11907;SDS011;6014;47.690;9.130;2023-12-20T02:51:58;5.25;;;2.92;;
11907;SDS011;6014;47.690;9.130;2023-12-20T02:54:32;5.72;;;2.67;;
11907;SDS011;6014;47.690;9.130;2023-12-20T02:57:00;7.22;;;2.75;;
11907;SDS011;6014;47.690;9.130;2023-12-20T02:59:29;5.28;;;2.63;;
11907;SDS011;6014;47.690;9.130;2023-12-20T03:01:57;6.65;;;3.38;;
11907;SDS011;6014;47.690;9.130;2023-12-20T03:04:26;6.78;;;3.20;;
11907;SDS011;6014;47.690;9.130;2023-12-20T03:06:54;5.38;;;2.80;;
11907;SDS011;6014;47.690;9.130;2023-12-20T03:09:24;5.95;;;3.47;;
11907;SDS011;6014;47.690;9.130;2023-12-20T03:11:52;6.35;;;2.95;;
11907;SDS011;6014;47.690;9.130;2023-12-20T03:14:34;5.00;;;2.55;;
11907;SDS011;6014;47.690;9.130;2023-12-20T03:17:02;3.42;;;2.22;;
11907;SDS011;6014;47.690;9.130;2023-12-20T03:19:31;6.55;;;3.10;;
11907;SDS011;6014;47.690;9.130;2023-12-20T03:21:59;7.10;;;3.17;;
11907;SDS011;6014;47.690;9.130;2023-12-20T03:24:29;5.68;;;2.92;;
11907;SDS011;6014;47.690;9.130;2023-12-20T03:26:58;5.53;;;2.92;;
11907;SDS011;6014;47.690;9.130;2023-12-20T03:29:26;5.68;;;2.78;;
11907;SDS011;6014;47.690;9.130;2023-12-20T03:31:54;7.22;;;3.45;;
11907;SDS011;6014;47.690;9.130;2023-12-20T03:34:22;5.78;;;2.88;;
11907;SDS011;6014;47.690;9.130;2023-12-20T03:36:51;5.32;;;3.10;;
11907;SDS011;6014;47.690;9.130;2023-12-20T03:39:25;6.45;;;3.88;;
11907;SDS011;6014;47.690;9.130;2023-12-20T03:41:55;7.53;;;3.50;;
11907;SDS011;6014;47.690;9.130;2023-12-20T03:44:23;10.63;;;3.72;;
11907;SDS011;6014;47.690;9.130;2023-12-20T03:46:52;6.50;;;3.60;;
11907;SDS011;6014;47.690;9.130;2023-12-20T03:49:20;6.17;;;3.50;;
11907;SDS011;6014;47.690;9.130;2023-12-20T03:51:48;6.80;;;3.50;;
11907;SDS011;6014;47.690;9.130;2023-12-20T03:54:17;5.43;;;3.10;;
11907;SDS011;6014;47.690;9.130;2023-12-20T03:56:45;5.43;;;3.30;;
11907;SDS011;6014;47.690;9.130;2023-12-20T03:59:15;5.60;;;2.40;;
11907;SDS011;6014;47.690;9.130;2023-12-20T04:01:44;5.97;;;2.90;;
11907;SDS011;6014;47.690;9.130;2023-12-20T04:04:13;7.40;;;3.73;;
11907;SDS011;6014;47.690;9.130;2023-12-20T04:06:41;5.73;;;3.10;;
11907;SDS011;6014;47.690;9.130;2023-12-20T04:09:10;3.63;;;2.17;;
11907;SDS011;6014;47.690;9.130;2023-12-20T04:11:38;7.43;;;3.70;;
11907;SDS011;6014;47.690;9.130;2023-12-20T04:14:07;5.87;;;2.83;;
11907;SDS011;6014;47.690;9.130;2023-12-20T04:16:38;5.37;;;2.67;;
11907;SDS011;6014;47.690;9.130;2023-12-20T04:19:09;5.32;;;3.05;;
11907;SDS011;6014;47.690;9.130;2023-12-20T04:21:38;2.90;;;1.63;;
11907;SDS011;6014;47.690;9.130;2023-12-20T04:24:06;8.60;;;3.30;;
11907;SDS011;6014;47.690;9.130;2023-12-20T04:26:35;6.30;;;3.20;;
11907;SDS011;6014;47.690;9.130;2023-12-20T04:29:03;5.27;;;2.43;;
11907;SDS011;6014;47.690;9.130;2023-12-20T04:31:32;5.77;;;2.57;;
11907;SDS011;6014;47.690;9.130;2023-12-20T04:34:01;4.97;;;2.80;;
11907;SDS011;6014;47.690;9.130;2023-12-20T04:36:30;4.83;;;3.00;;
11907;SDS011;6014;47.690;9.130;2023-12-20T04:38:58;5.03;;;2.80;;
11907;SDS011;6014;47.690;9.130;2023-12-20T04:41:27;5.00;;;2.37;;
11907;SDS011;6014;47.690;9.130;2023-12-20T04:43:55;4.67;;;2.63;;
11907;SDS011;6014;47.690;9.130;2023-12-20T04:46:23;5.73;;;3.43;;
11907;SDS011;6014;47.690;9.130;2023-12-20T04:48:51;6.50;;;3.23;;
11907;SDS011;6014;47.690;9.130;2023-12-20T04:51:21;5.67;;;3.23;;
11907;SDS011;6014;47.690;9.130;2023-12-20T04:53:50;5.97;;;3.50;;
11907;SDS011;6014;47.690;9.130;2023-12-20T04:56:18;6.23;;;2.90;;
11907;SDS011;6014;47.690;9.130;2023-12-20T04:58:47;6.00;;;3.00;;
11907;SDS011;6014;47.690;9.130;2023-12-20T05:01:20;5.90;;;3.43;;
11907;SDS011;6014;47.690;9.130;2023-12-20T05:03:49;5.70;;;3.43;;
11907;SDS011;6014;47.690;9.130;2023-12-20T05:06:17;5.57;;;3.30;;
11907;SDS011;6014;47.690;9.130;2023-12-20T05:08:47;5.57;;;3.13;;
11907;SDS011;6014;47.690;9.130;2023-12-20T05:11:15;6.33;;;3.23;;
11907;SDS011;6014;47.690;9.130;2023-12-20T05:13:43;6.67;;;3.50;;
11907;SDS011;6014;47.690;9.130;2023-12-20T05:18:48;5.63;;;3.08;;
11907;SDS011;6014;47.690;9.130;2023-12-20T05:21:18;5.03;;;2.83;;
11907;SDS011;6014;47.690;9.130;2023-12-20T05:23:48;6.63;;;3.67;;
11907;SDS011;6014;47.690;9.130;2023-12-20T05:26:17;5.20;;;2.60;;
11907;SDS011;6014;47.690;9.130;2023-12-20T05:28:45;4.93;;;2.33;;
11907;SDS011;6014;47.690;9.130;2023-12-20T05:31:14;5.23;;;2.87;;
11907;SDS011;6014;47.690;9.130;2023-12-20T05:33:42;5.23;;;3.00;;
11907;SDS011;6014;47.690;9.130;2023-12-20T05:36:11;6.60;;;3.43;;
11907;SDS011;6014;47.690;9.130;2023-12-20T05:38:41;5.00;;;2.80;;
11907;SDS011;6014;47.690;9.130;2023-12-20T05:41:11;4.77;;;3.07;;
11907;SDS011;6014;47.690;9.130;2023-12-20T05:43:39;5.77;;;3.20;;
11907;SDS011;6014;47.690;9.130;2023-12-20T05:46:09;4.80;;;2.90;;
11907;SDS011;6014;47.690;9.130;2023-12-20T05:48:38;5.50;;;2.97;;
11907;SDS011;6014;47.690;9.130;2023-12-20T05:51:07;7.27;;;3.53;;
11907;SDS011;6014;47.690;9.130;2023-12-20T05:53:38;4.50;;;2.70;;
11907;SDS011;6014;47.690;9.130;2023-12-20T05:56:06;4.40;;;2.40;;
11907;SDS011;6014;47.690;9.130;2023-12-20T05:58:36;6.13;;;3.20;;
11907;SDS011;6014;47.690;9.130;2023-12-20T06:01:06;4.03;;;2.40;;
11907;SDS011;6014;47.690;9.130;2023-12-20T06:03:35;4.60;;;2.57;;
11907;SDS011;6014;47.690;9.130;2023-12-20T06:06:07;5.07;;;2.90;;
11907;SDS011;6014;47.690;9.130;2023-12-20T06:08:42;4.70;;;2.70;;
11907;SDS011;6014;47.690;9.130;2023-12-20T06:11:11;4.20;;;2.27;;
11907;SDS011;6014;47.690;9.130;2023-12-20T06:13:41;5.83;;;2.97;;
11907;SDS011;6014;47.690;9.130;2023-12-20T06:16:09;7.13;;;3.30;;
11907;SDS011;6014;47.690;9.130;2023-12-20T06:18:38;5.20;;;3.00;;
11907;SDS011;6014;47.690;9.130;2023-12-20T06:21:06;6.03;;;3.50;;
11907;SDS011;6014;47.690;9.130;2023-12-20T06:23:39;8.43;;;4.00;;
11907;SDS011;6014;47.690;9.130;2023-12-20T06:26:07;5.07;;;3.13;;
11907;SDS011;6014;47.690;9.130;2023-12-20T06:28:35;6.30;;;3.00;;
11907;SDS011;6014;47.690;9.130;2023-12-20T06:31:09;5.27;;;2.77;;
11907;SDS011;6014;47.690;9.130;2023-12-20T06:33:37;5.47;;;2.90;;
11907;SDS011;6014;47.690;9.130;2023-12-20T06:36:07;5.13;;;2.90;;
11907;SDS011;6014;47.690;9.130;2023-12-20T06:38:37;4.70;;;2.47;;
11907;SDS011;6014;47.690;9.130;2023-12-20T06:41:08;5.03;;;2.80;;
11907;SDS011;6014;47.690;9.130;2023-12-20T06:43:38;3.03;;;1.70;;
11907;SDS011;6014;47.690;9.130;2023-12-20T06:46:16;4.80;;;2.60;;
11907;SDS011;6014;47.690;9.130;2023-12-20T06:48:45;4.23;;;2.37;;
11907;SDS011;6014;47.690;9.130;2023-12-20T06:51:14;3.30;;;2.03;;
11907;SDS011;6014;47.690;9.130;2023-12-20T06:53:44;2.83;;;1.70;;
11907;SDS011;6014;47.690;9.130;2023-12-20T06:56:12;5.57;;;2.50;;
11907;SDS011;6014;47.690;9.130;2023-12-20T06:58:44;5.50;;;3.27;;
11907;SDS011;6014;47.690;9.130;2023-12-20T07:01:13;6.13;;;3.07;;
11907;SDS011;6014;47.690;9.130;2023-12-20T07:03:43;5.57;;;2.80;;
11907;SDS011;6014;47.690;9.130;2023-12-20T07:06:12;4.87;;;2.70;;
11907;SDS011;6014;47.690;9.130;2023-12-20T07:08:43;6.22;;;2.80;;
11907;SDS011;6014;47.690;9.130;2023-12-20T07:11:11;5.23;;;2.90;;
11907;SDS011;6014;47.690;9.130;2023-12-20T07:13:39;6.20;;;3.33;;
11907;SDS011;6014;47.690;9.130;2023-12-20T07:16:08;5.17;;;3.13;;
11907;SDS011;6014;47.690;9.130;2023-12-20T07:18:36;4.90;;;3.10;;
11907;SDS011;6014;47.690;9.130;2023-12-20T07:21:06;7.27;;;2.97;;
11907;SDS011;6014;47.690;9.130;2023-12-20T07:23:35;6.33;;;2.80;;
11907;SDS011;6014;47.690;9.130;2023-12-20T07:26:03;5.75;;;3.20;;
11907;SDS011;6014;47.690;9.130;2023-12-20T07:28:32;5.00;;;2.53;;
11907;SDS011;6014;47.690;9.130;2023-12-20T07:31:00;5.90;;;2.55;;
11907;SDS011;6014;47.690;9.130;2023-12-20T07:33:29;5.50;;;2.55;;
11907;SDS011;6014;47.690;9.130;2023-12-20T07:36:06;5.23;;;2.20;;
11907;SDS011;6014;47.690;9.130;2023-12-20T07:38:35;4.13;;;2.10;;
11907;SDS011;6014;47.690;9.130;2023-12-20T07:41:03;5.03;;;2.33;;
11907;SDS011;6014;47.690;9.130;2023-12-20T07:43:32;4.67;;;2.47;;
11907;SDS011;6014;47.690;9.130;2023-12-20T07:46:03;4.03;;;2.10;;
11907;SDS011;6014;47.690;9.130;2023-12-20T07:48:34;4.60;;;2.50;;
11907;SDS011;6014;47.690;9.130;2023-12-20T07:51:03;5.17;;;2.63;;
11907;SDS011;6014;47.690;9.130;2023-12-20T07:53:35;3.83;;;2.28;;
11907;SDS011;6014;47.690;9.130;2023-12-20T07:56:13;2.57;;;1.50;;
11907;SDS011;6014;47.690;9.130;2023-12-20T07:58:42;4.23;;;2.30;;
11907;SDS011;6014;47.690;9.130;2023-12-20T08:01:19;6.50;;;1.77;;
11907;SDS011;6014;47.690;9.130;2023-12-20T08:03:48;4.07;;;2.30;;
11907;SDS011;6014;47.690;9.130;2023-12-20T08:06:18;4.05;;;1.88;;
11907;SDS011;6014;47.690;9.130;2023-12-20T08:08:48;3.60;;;2.00;;
11907;SDS011;6014;47.690;9.130;2023-12-20T08:11:27;2.75;;;1.52;;
11907;SDS011;6014;47.690;9.130;2023-12-20T08:13:56;2.63;;;1.50;;
11907;SDS011;6014;47.690;9.130;2023-12-20T08:16:24;2.97;;;1.58;;
11907;SDS011;6014;47.690;9.130;2023-12-20T08:18:53;3.90;;;1.92;;
11907;SDS011;6014;47.690;9.130;2023-12-20T08:21:22;3.58;;;1.90;;
11907;SDS011;6014;47.690;9.130;2023-12-20T08:23:51;3.17;;;1.90;;
11907;SDS011;6014;47.690;9.130;2023-12-20T08:26:20;4.15;;;2.03;;
11907;SDS011;6014;47.690;9.130;2023-12-20T08:28:50;3.83;;;2.00;;
11907;SDS011;6014;47.690;9.130;2023-12-20T08:31:19;2.60;;;1.60;;
11907;SDS011;6014;47.690;9.130;2023-12-20T08:33:48;2.10;;;1.30;;
11907;SDS011;6014;47.690;9.130;2023-12-20T08:36:17;2.63;;;1.70;;
11907;SDS011;6014;47.690;9.130;2023-12-20T08:38:47;3.17;;;1.70;;
11907;SDS011;6014;47.690;9.130;2023-12-20T08:41:17;3.97;;;1.80;;
11907;SDS011;6014;47.690;9.130;2023-12-20T08:43:47;3.70;;;2.00;;
11907;SDS011;6014;47.690;9.130;2023-12-20T08:46:15;3.47;;;1.70;;
11907;SDS011;6014;47.690;9.130;2023-12-20T08:48:44;2.58;;;1.67;;
11907;SDS011;6014;47.690;9.130;2023-12-20T08:51:13;2.25;;;1.45;;
11907;SDS011;6014;47.690;9.130;2023-12-20T08:53:42;2.35;;;1.10;;
11907;SDS011;6014;47.690;9.130;2023-12-20T08:56:11;2.58;;;1.65;;
11907;SDS011;6014;47.690;9.130;2023-12-20T08:58:41;4.20;;;2.45;;
11907;SDS011;6014;47.690;9.130;2023-12-20T09:01:10;2.40;;;1.20;;
11907;SDS011;6014;47.690;9.130;2023-12-20T09:03:38;4.25;;;2.20;;
11907;SDS011;6014;47.690;9.130;2023-12-20T09:06:07;4.70;;;2.40;;
11907;SDS011;6014;47.690;9.130;2023-12-20T09:08:36;4.25;;;2.03;;
11907;SDS011;6014;47.690;9.130;2023-12-20T09:11:04;2.70;;;1.55;;
11907;SDS011;6014;47.690;9.130;2023-12-20T09:13:34;3.97;;;1.90;;
11907;SDS011;6014;47.690;9.130;2023-12-20T09:16:04;2.38;;;1.38;;
11907;SDS011;6014;47.690;9.130;2023-12-20T09:18:33;3.78;;;2.17;;
11907;SDS011;6014;47.690;9.130;2023-12-20T09:21:01;3.03;;;1.70;;
11907;SDS011;6014;47.690;9.130;2023-12-20T09:23:30;2.63;;;1.23;;
11907;SDS011;6014;47.690;9.130;2023-12-20T09:25:58;3.45;;;1.45;;
11907;SDS011;6014;47.690;9.130;2023-12-20T09:28:27;3.03;;;1.50;;
11907;SDS011;6014;47.690;9.130;2023-12-20T09:30:55;2.42;;;1.48;;
11907;SDS011;6014;47.690;9.130;2023-12-20T09:33:25;3.50;;;1.70;;
11907;SDS011;6014;47.690;9.130;2023-12-20T09:35:54;3.80;;;2.08;;
11907;SDS011;6014;47.690;9.130;2023-12-20T09:38:22;1.63;;;1.17;;
11907;SDS011;6014;47.690;9.130;2023-12-20T09:40:50;1.15;;;0.98;;
11907;SDS011;6014;47.690;9.130;2023-12-20T09:43:29;2.45;;;1.58;;
11907;SDS011;6014;47.690;9.130;2023-12-20T09:46:09;1.08;;;0.98;;
11907;SDS011;6014;47.690;9.130;2023-12-20T09:48:44;2.13;;;1.25;;
11907;SDS011;6014;47.690;9.130;2023-12-20T09:51:13;3.90;;;1.50;;
11907;SDS011;6014;47.690;9.130;2023-12-20T09:53:42;3.28;;;1.90;;
11907;SDS011;6014;47.690;9.130;2023-12-20T09:56:11;5.82;;;2.95;;
11907;SDS011;6014;47.690;9.130;2023-12-20T09:58:41;2.47;;;1.42;;
11907;SDS011;6014;47.690;9.130;2023-12-20T10:01:09;3.20;;;1.80;;
11907;SDS011;6014;47.690;9.130;2023-12-20T10:03:38;2.22;;;1.40;;
11907;SDS011;6014;47.690;9.130;2023-12-20T10:06:10;3.70;;;2.05;;
11907;SDS011;6014;47.690;9.130;2023-12-20T10:08:38;3.83;;;2.17;;
11907;SDS011;6014;47.690;9.130;2023-12-20T10:11:07;5.30;;;2.35;;
11907;SDS011;6014;47.690;9.130;2023-12-20T10:13:38;3.33;;;1.83;;
11907;SDS011;6014;47.690;9.130;2023-12-20T10:16:07;1.63;;;1.20;;
11907;SDS011;6014;47.690;9.130;2023-12-20T10:18:36;1.33;;;1.05;;
11907;SDS011;6014;47.690;9.130;2023-12-20T10:21:05;2.78;;;1.52;;
11907;SDS011;6014;47.690;9.130;2023-12-20T10:23:38;2.63;;;1.52;;
11907;SDS011;6014;47.690;9.130;2023-12-20T10:26:07;3.10;;;1.50;;
11907;SDS011;6014;47.690;9.130;2023-12-20T10:28:36;2.03;;;1.55;;
11907;SDS011;6014;47.690;9.130;2023-12-20T10:31:05;2.83;;;1.48;;
11907;SDS011;6014;47.690;9.130;2023-12-20T10:33:34;3.05;;;1.70;;
11907;SDS011;6014;47.690;9.130;2023-12-20T10:36:02;2.58;;;1.58;;
11907;SDS011;6014;47.690;9.130;2023-12-20T10:38:32;3.67;;;1.92;;
11907;SDS011;6014;47.690;9.130;2023-12-20T10:41:07;2.33;;;1.38;;
11907;SDS011;6014;47.690;9.130;2023-12-20T10:43:44;2.30;;;1.25;;
11907;SDS011;6014;47.690;9.130;2023-12-20T10:46:15;2.35;;;1.60;;
11907;SDS011;6014;47.690;9.130;2023-12-20T10:48:45;2.35;;;1.42;;
11907;SDS011;6014;47.690;9.130;2023-12-20T10:51:17;2.10;;;1.35;;
11907;SDS011;6014;47.690;9.130;2023-12-20T10:53:46;3.00;;;1.80;;
11907;SDS011;6014;47.690;9.130;2023-12-20T10:56:18;1.58;;;1.10;;
11907;SDS011;6014;47.690;9.130;2023-12-20T10:58:49;3.38;;;1.80;;
11907;SDS011;6014;47.690;9.130;2023-12-20T11:01:19;2.78;;;1.33;;
11907;SDS011;6014;47.690;9.130;2023-12-20T11:03:48;1.25;;;0.88;;
11907;SDS011;6014;47.690;9.130;2023-12-20T11:06:20;2.22;;;1.50;;
11907;SDS011;6014;47.690;9.130;2023-12-20T11:09:06;6.65;;;3.80;;
11907;SDS011;6014;47.690;9.130;2023-12-20T11:11:45;0.85;;;0.82;;
11907;SDS011;6014;47.690;9.130;2023-12-20T11:14:27;2.65;;;1.55;;
11907;SDS011;6014;47.690;9.130;2023-12-20T11:17:06;2.05;;;1.02;;
11907;SDS011;6014;47.690;9.130;2023-12-20T11:19:36;1.13;;;0.90;;
11907;SDS011;6014;47.690;9.130;2023-12-20T11:22:06;2.90;;;1.30;;
11907;SDS011;6014;47.690;9.130;2023-12-20T11:24:34;1.02;;;0.80;;
11907;SDS011;6014;47.690;9.130;2023-12-20T11:27:05;0.98;;;0.70;;
11907;SDS011;6014;47.690;9.130;2023-12-20T11:29:34;1.05;;;0.85;;
11907;SDS011;6014;47.690;9.130;2023-12-20T11:34:58;5.05;;;0.80;;
11907;SDS011;6014;47.690;9.130;2023-12-20T11:37:28;0.77;;;0.77;;
11907;SDS011;6014;47.690;9.130;2023-12-20T11:40:00;0.77;;;0.65;;
11907;SDS011;6014;47.690;9.130;2023-12-20T11:42:33;1.08;;;0.85;;
11907;SDS011;6014;47.690;9.130;2023-12-20T11:45:08;0.77;;;0.68;;
11907;SDS011;6014;47.690;9.130;2023-12-20T11:47:37;1.23;;;1.10;;
11907;SDS011;6014;47.690;9.130;2023-12-20T11:50:06;0.90;;;0.73;;
11907;SDS011;6014;47.690;9.130;2023-12-20T11:52:35;0.65;;;0.65;;
11907;SDS011;6014;47.690;9.130;2023-12-20T11:55:04;1.08;;;0.80;;
11907;SDS011;6014;47.690;9.130;2023-12-20T11:57:35;2.30;;;1.15;;
11907;SDS011;6014;47.690;9.130;2023-12-20T12:00:04;0.75;;;0.73;;
11907;SDS011;6014;47.690;9.130;2023-12-20T12:02:34;1.02;;;0.90;;
11907;SDS011;6014;47.690;9.130;2023-12-20T12:05:03;1.70;;;1.10;;
11907;SDS011;6014;47.690;9.130;2023-12-20T12:07:33;1.67;;;1.02;;
11907;SDS011;6014;47.690;9.130;2023-12-20T12:10:02;1.75;;;0.85;;
11907;SDS011;6014;47.690;9.130;2023-12-20T12:12:31;1.15;;;0.98;;
11907;SDS011;6014;47.690;9.130;2023-12-20T12:15:01;1.08;;;1.00;;
11907;SDS011;6014;47.690;9.130;2023-12-20T12:17:30;0.50;;;0.50;;
11907;SDS011;6014;47.690;9.130;2023-12-20T12:20:02;1.20;;;1.00;;
11907;SDS011;6014;47.690;9.130;2023-12-20T12:22:32;0.73;;;0.73;;
11907;SDS011;6014;47.690;9.130;2023-12-20T12:25:09;1.23;;;0.80;;
11907;SDS011;6014;47.690;9.130;2023-12-20T12:27:39;0.50;;;0.50;;
11907;SDS011;6014;47.690;9.130;2023-12-20T12:30:10;0.65;;;0.65;;
11907;SDS011;6014;47.690;9.130;2023-12-20T12:32:40;1.10;;;0.65;;
11907;SDS011;6014;47.690;9.130;2023-12-20T12:35:08;0.70;;;0.70;;
11907;SDS011;6014;47.690;9.130;2023-12-20T12:37:37;1.58;;;1.02;;
11907;SDS011;6014;47.690;9.130;2023-12-20T12:40:09;1.08;;;0.75;;
11907;SDS011;6014;47.690;9.130;2023-12-20T12:42:39;0.80;;;0.80;;
11907;SDS011;6014;47.690;9.130;2023-12-20T12:45:11;0.85;;;0.68;;
11907;SDS011;6014;47.690;9.130;2023-12-20T12:47:39;0.57;;;0.57;;
11907;SDS011;6014;47.690;9.130;2023-12-20T12:50:09;1.20;;;0.88;;
11907;SDS011;6014;47.690;9.130;2023-12-20T12:52:37;1.02;;;0.90;;
11907;SDS011;6014;47.690;9.130;2023-12-20T12:55:06;1.17;;;0.80;;
11907;SDS011;6014;47.690;9.130;2023-12-20T12:57:36;2.22;;;1.10;;
11907;SDS011;6014;47.690;9.130;2023-12-20T13:00:05;0.40;;;0.40;;
11907;SDS011;6014;47.690;9.130;2023-12-20T13:02:37;1.60;;;0.95;;
11907;SDS011;6014;47.690;9.130;2023-12-20T13:05:08;0.68;;;0.60;;
11907;SDS011;6014;47.690;9.130;2023-12-20T13:07:37;1.58;;;0.95;;
11907;SDS011;6014;47.690;9.130;2023-12-20T13:10:06;1.63;;;1.00;;
11907;SDS011;6014;47.690;9.130;2023-12-20T13:12:36;3.22;;;1.33;;
11907;SDS011;6014;47.690;9.130;2023-12-20T13:15:05;1.15;;;1.05;;
11907;SDS011;6014;47.690;9.130;2023-12-20T13:17:33;1.35;;;0.93;;
11907;SDS011;6014;47.690;9.130;2023-12-20T13:20:04;2.25;;;1.15;;
11907;SDS011;6014;47.690;9.130;2023-12-20T13:22:34;1.23;;;0.85;;
11907;SDS011;6014;47.690;9.130;2023-12-20T13:25:03;0.73;;;0.70;;
11907;SDS011;6014;47.690;9.130;2023-12-20T13:27:32;0.50;;;0.50;;
11907;SDS011;6014;47.690;9.130;2023-12-20T13:30:01;1.50;;;0.88;;
11907;SDS011;6014;47.690;9.130;2023-12-20T13:32:30;0.82;;;0.70;;
11907;SDS011;6014;47.690;9.130;2023-12-20T13:34:58;1.10;;;0.73;;
11907;SDS011;6014;47.690;9.130;2023-12-20T13:37:28;0.73;;;0.68;;
11907;SDS011;6014;47.690;9.130;2023-12-20T13:39:57;1.23;;;0.52;;
11907;SDS011;6014;47.690;9.130;2023-12-20T13:42:25;0.80;;;0.70;;
11907;SDS011;6014;47.690;9.130;2023-12-20T13:44:54;0.63;;;0.60;;
11907;SDS011;6014;47.690;9.130;2023-12-20T13:47:22;2.38;;;1.30;;
11907;SDS011;6014;47.690;9.130;2023-12-20T13:49:50;0.85;;;0.68;;
11907;SDS011;6014;47.690;9.130;2023-12-20T13:52:25;5.38;;;2.95;;
11907;SDS011;6014;47.690;9.130;2023-12-20T13:54:55;1.23;;;0.80;;
11907;SDS011;6014;47.690;9.130;2023-12-20T13:57:23;1.23;;;1.05;;
11907;SDS011;6014;47.690;9.130;2023-12-20T14:00:12;0.80;;;0.80;;
11907;SDS011;6014;47.690;9.130;2023-12-20T14:02:42;1.13;;;0.95;;
11907;SDS011;6014;47.690;9.130;2023-12-20T14:05:10;2.58;;;1.42;;
11907;SDS011;6014;47.690;9.130;2023-12-20T14:07:40;1.30;;;0.98;;
11907;SDS011;6014;47.690;9.130;2023-12-20T14:10:13;1.63;;;1.30;;
11907;SDS011;6014;47.690;9.130;2023-12-20T14:12:42;0.98;;;0.90;;
11907;SDS011;6014;47.690;9.130;2023-12-20T14:17:51;1.15;;;1.05;;
11907;SDS011;6014;47.690;9.130;2023-12-20T14:20:21;1.67;;;1.08;;
11907;SDS011;6014;47.690;9.130;2023-12-20T14:22:49;1.90;;;1.35;;
11907;SDS011;6014;47.690;9.130;2023-12-20T14:25:19;0.98;;;0.98;;
11907;SDS011;6014;47.690;9.130;2023-12-20T14:27:49;2.83;;;1.50;;
11907;SDS011;6014;47.690;9.130;2023-12-20T14:30:18;1.80;;;1.10;;
11907;SDS011;6014;47.690;9.130;2023-12-20T14:32:46;2.00;;;1.30;;
11907;SDS011;6014;47.690;9.130;2023-12-20T14:35:15;0.75;;;0.63;;
11907;SDS011;6014;47.690;9.130;2023-12-20T14:37:45;1.30;;;0.93;;
11907;SDS011;6014;47.690;9.130;2023-12-20T14:40:14;3.47;;;1.88;;
11907;SDS011;6014;47.690;9.130;2023-12-20T14:42:44;1.35;;;1.02;;
11907;SDS011;6014;47.690;9.130;2023-12-20T14:45:14;1.40;;;0.98;;
11907;SDS011;6014;47.690;9.130;2023-12-20T14:47:43;0.80;;;0.73;;
11907;SDS011;6014;47.690;9.130;2023-12-20T14:50:12;0.80;;;0.60;;
11907;SDS011;6014;47.690;9.130;2023-12-20T14:52:45;2.93;;;1.40;;
11907;SDS011;6014;47.690;9.130;2023-12-20T14:55:13;1.60;;;0.90;;
11907;SDS011;6014;47.690;9.130;2023-12-20T14:57:45;1.60;;;1.17;;
11907;SDS011;6014;47.690;9.130;2023-12-20T15:00:16;3.15;;;1.33;;
11907;SDS011;6014;47.690;9.130;2023-12-20T15:02:45;0.98;;;0.77;;
11907;SDS011;6014;47.690;9.130;2023-12-20T15:05:14;2.58;;;1.38;;
11907;SDS011;6014;47.690;9.130;2023-12-20T15:07:43;3.25;;;1.40;;
11907;SDS011;6014;47.690;9.130;2023-12-20T15:10:13;1.33;;;0.85;;
11907;SDS011;6014;47.690;9.130;2023-12-20T15:15:19;4.23;;;1.63;;
11907;SDS011;6014;47.690;9.130;2023-12-20T15:17:48;2.55;;;1.20;;
11907;SDS011;6014;47.690;9.130;2023-12-20T15:20:17;1.88;;;1.15;;
11907;SDS011;6014;47.690;9.130;2023-12-20T15:22:46;2.17;;;1.00;;
11907;SDS011;6014;47.690;9.130;2023-12-20T15:25:15;1.83;;;1.30;;
11907;SDS011;6014;47.690;9.130;2023-12-20T15:27:48;2.40;;;1.42;;
11907;SDS011;6014;47.690;9.130;2023-12-20T15:30:23;6.10;;;1.80;;